createdAt,value
2019-04-30T00:00:20.485Z,7.00
2019-04-30T00:03:06.839Z,7.10
2019-04-30T00:05:35.273Z,7.20
2019-04-30T00:08:01.786Z,7.20
2019-04-30T00:10:36.081Z,7.20
2019-04-30T00:12:56.339Z,7.00
2019-04-30T00:15:22.769Z,7.00
2019-04-30T00:17:52.886Z,6.90
2019-04-30T00:20:17.675Z,6.80
2019-04-30T00:22:47.134Z,6.70
2019-04-30T00:25:12.533Z,6.70
2019-04-30T00:27:38.889Z,6.70
2019-04-30T00:30:08.968Z,6.80
2019-04-30T00:32:38.855Z,6.70
2019-04-30T00:35:07.019Z,6.70
2019-04-30T00:37:35.176Z,6.80
2019-04-30T00:40:01.668Z,6.80
2019-04-30T00:42:28.791Z,6.80
2019-04-30T00:44:55.533Z,6.70
2019-04-30T00:47:25.627Z,7.00
2019-04-30T00:49:56.321Z,6.70
2019-04-30T00:52:20.226Z,6.70
2019-04-30T00:54:46.730Z,6.80
2019-04-30T00:57:14.753Z,6.80
2019-04-30T00:59:46.534Z,6.80
2019-04-30T01:02:20.009Z,6.80
2019-04-30T01:04:47.642Z,6.30
2019-04-30T01:07:15.599Z,6.90
2019-04-30T01:09:46.507Z,6.80
2019-04-30T01:12:10.404Z,6.80
2019-04-30T01:14:38.213Z,6.80
2019-04-30T01:17:08.886Z,6.70
2019-04-30T01:19:33.406Z,6.70
2019-04-30T01:21:59.857Z,7.00
2019-04-30T01:24:31.426Z,6.70
2019-04-30T01:27:02.165Z,6.90
2019-04-30T01:29:25.831Z,6.90
2019-04-30T01:31:52.281Z,6.80
2019-04-30T01:34:19.597Z,6.70
2019-04-30T01:36:50.738Z,6.70
2019-04-30T01:39:14.174Z,6.70
2019-04-30T01:41:40.648Z,6.70
2019-04-30T01:44:08.647Z,6.60
2019-04-30T01:46:35.353Z,6.70
2019-04-30T01:49:01.885Z,6.80
2019-04-30T01:51:28.560Z,6.80
2019-04-30T01:53:55.065Z,6.80
2019-04-30T01:56:39.610Z,6.70
2019-04-30T01:59:09.202Z,6.80
2019-04-30T02:01:39.026Z,6.80
2019-04-30T02:04:05.729Z,6.90
2019-04-30T02:06:32.196Z,6.80
2019-04-30T02:08:59.376Z,6.50
2019-04-30T02:11:25.849Z,6.50
2019-04-30T02:13:52.375Z,7.10
2019-04-30T02:16:21.129Z,7.00
2019-04-30T02:18:47.133Z,7.00
2019-04-30T02:21:13.494Z,7.00
2019-04-30T02:23:40.009Z,7.00
2019-04-30T02:26:08.542Z,7.00
2019-04-30T02:28:34.833Z,7.00
2019-04-30T02:31:01.428Z,7.20
2019-04-30T02:33:30.709Z,6.90
2019-04-30T02:36:03.869Z,6.80
2019-04-30T02:38:32.081Z,6.50
2019-04-30T02:40:59.719Z,6.70
2019-04-30T02:43:29.947Z,6.70
2019-04-30T02:45:59.839Z,6.70
2019-04-30T02:48:29.512Z,6.70
2019-04-30T02:50:56.897Z,6.90
2019-04-30T02:53:50.534Z,6.70
2019-04-30T02:56:20.203Z,6.70
2019-04-30T02:58:50.723Z,6.70
2019-04-30T03:01:19.940Z,6.80
2019-04-30T03:03:45.655Z,6.70
2019-04-30T03:06:12.043Z,6.90
2019-04-30T03:08:40.411Z,6.80
2019-04-30T03:11:06.669Z,6.90
2019-04-30T03:13:33.035Z,6.80
2019-04-30T03:15:59.538Z,6.80
2019-04-30T03:18:44.270Z,6.60
2019-04-30T03:21:29.099Z,6.80
2019-04-30T03:23:57.074Z,6.80
2019-04-30T03:26:23.429Z,6.80
2019-04-30T03:28:49.744Z,6.80
2019-04-30T03:31:16.200Z,6.70
2019-04-30T03:33:42.819Z,6.80
2019-04-30T03:36:12.473Z,6.90
2019-04-30T03:38:39.623Z,6.60
2019-04-30T03:41:05.548Z,6.60
2019-04-30T03:43:31.798Z,6.60
2019-04-30T03:45:59.334Z,6.60
2019-04-30T03:48:26.429Z,6.60
2019-04-30T03:50:56.628Z,6.70
2019-04-30T03:53:21.160Z,6.70
2019-04-30T03:55:50.435Z,6.70
2019-04-30T03:58:16.057Z,6.80
2019-04-30T04:00:46.654Z,6.90
2019-04-30T04:03:12.641Z,6.90
2019-04-30T04:05:50.144Z,7.00
2019-04-30T04:08:19.561Z,7.10
2019-04-30T04:10:50.203Z,7.20
2019-04-30T04:13:15.992Z,7.40
2019-04-30T04:15:42.461Z,7.20
2019-04-30T04:18:10.643Z,7.30
2019-04-30T04:20:39.561Z,7.20
2019-04-30T04:23:05.376Z,7.40
2019-04-30T04:25:31.873Z,7.50
2019-04-30T04:28:00.338Z,7.60
2019-04-30T04:30:26.458Z,7.70
2019-04-30T04:32:52.927Z,7.60
2019-04-30T04:35:19.954Z,7.60
2019-04-30T04:37:48.905Z,7.60
2019-04-30T04:40:14.727Z,7.80
2019-04-30T04:42:41.089Z,7.70
2019-04-30T04:45:09.887Z,7.80
2019-04-30T04:47:36.273Z,7.90
2019-04-30T04:50:05.833Z,8.00
2019-04-30T04:52:32.169Z,8.20
2019-04-30T04:55:00.360Z,8.50
2019-04-30T04:57:26.654Z,8.50
2019-04-30T04:59:53.009Z,8.60
2019-04-30T05:02:32.204Z,8.70
2019-04-30T05:04:55.897Z,8.80
2019-04-30T05:07:22.432Z,8.90
2019-04-30T05:09:49.030Z,9.10
2019-04-30T05:12:15.309Z,9.10
2019-04-30T05:14:41.459Z,9.10
2019-04-30T05:17:09.445Z,9.80
2019-04-30T05:19:35.960Z,10.30
2019-04-30T05:22:02.412Z,10.20
2019-04-30T05:24:28.761Z,9.90
2019-04-30T05:26:55.200Z,9.70
2019-04-30T05:29:21.469Z,9.70
2019-04-30T05:31:48.607Z,9.70
2019-04-30T05:34:14.980Z,9.70
2019-04-30T05:36:41.342Z,9.80
2019-04-30T05:39:08.694Z,10.00
2019-04-30T05:41:35.152Z,10.10
2019-04-30T05:44:01.508Z,10.20
2019-04-30T05:46:29.641Z,10.30
2019-04-30T05:48:55.988Z,10.40
2019-04-30T05:51:22.228Z,10.50
2019-04-30T05:53:49.199Z,10.70
2019-04-30T05:56:15.417Z,10.80
2019-04-30T05:58:41.754Z,10.90
2019-04-30T06:01:09.647Z,11.00
2019-04-30T06:03:36.252Z,11.20
2019-04-30T06:06:02.721Z,11.30
2019-04-30T06:08:36.788Z,11.50
2019-04-30T06:11:09.318Z,11.70
2019-04-30T06:13:38.402Z,11.90
2019-04-30T06:16:09.732Z,12.20
2019-04-30T06:18:36.177Z,12.30
2019-04-30T06:21:02.732Z,12.60
2019-04-30T06:23:29.452Z,12.70
2019-04-30T06:26:00.464Z,12.80
2019-04-30T06:28:24.469Z,13.00
2019-04-30T06:30:51.307Z,13.20
2019-04-30T06:33:19.298Z,13.20
2019-04-30T06:35:49.071Z,13.40
2019-04-30T06:38:15.547Z,13.70
2019-04-30T06:40:42.197Z,13.90
2019-04-30T06:43:09.082Z,14.10
2019-04-30T06:45:35.778Z,14.20
2019-04-30T06:48:02.628Z,14.20
2019-04-30T06:50:29.313Z,14.20
2019-04-30T06:52:58.790Z,14.40
2019-04-30T06:55:24.065Z,14.70
2019-04-30T06:57:50.502Z,14.90
2019-04-30T07:00:17.048Z,14.90
2019-04-30T07:02:43.401Z,15.20
2019-04-30T07:05:10.278Z,15.50
2019-04-30T07:07:41.172Z,15.60
2019-04-30T07:10:17.964Z,15.70
2019-04-30T07:12:48.981Z,15.90
2019-04-30T07:15:15.253Z,16.00
2019-04-30T07:17:41.757Z,16.20
2019-04-30T07:20:10.341Z,16.00
2019-04-30T07:22:40.726Z,15.90
2019-04-30T07:25:05.505Z,15.80
2019-04-30T07:27:32.358Z,15.70
2019-04-30T07:29:59.571Z,15.70
2019-04-30T07:32:26.365Z,15.50
2019-04-30T07:34:52.618Z,15.40
2019-04-30T07:37:24.182Z,15.30
2019-04-30T07:39:49.035Z,15.10
2019-04-30T07:42:15.250Z,15.00
2019-04-30T07:44:41.497Z,14.90
2019-04-30T07:47:09.679Z,14.90
2019-04-30T07:49:46.758Z,15.00
2019-04-30T07:52:05.023Z,15.00
2019-04-30T07:54:31.780Z,15.10
2019-04-30T07:57:00.344Z,15.00
2019-04-30T07:59:26.369Z,15.00
2019-04-30T08:02:06.645Z,15.10
2019-04-30T08:04:22.724Z,15.10
2019-04-30T08:06:49.891Z,15.00
2019-04-30T08:09:16.493Z,15.00
2019-04-30T08:11:43.699Z,14.90
2019-04-30T08:14:10.180Z,14.80
2019-04-30T08:16:38.595Z,14.90
2019-04-30T08:19:05.098Z,15.10
2019-04-30T08:21:31.545Z,15.10
2019-04-30T08:23:59.375Z,15.10
2019-04-30T08:26:26.177Z,15.10
2019-04-30T08:28:52.422Z,15.10
2019-04-30T08:31:19.569Z,15.20
2019-04-30T08:33:46.090Z,15.20
2019-04-30T08:36:12.537Z,15.10
2019-04-30T08:38:39.455Z,15.20
2019-04-30T08:41:05.840Z,15.30
2019-04-30T08:43:32.301Z,15.50
2019-04-30T08:45:59.486Z,15.50
2019-04-30T08:48:41.703Z,15.40
2019-04-30T08:50:54.267Z,15.30
2019-04-30T08:53:27.539Z,15.10
2019-04-30T08:55:49.232Z,15.10
2019-04-30T08:58:15.733Z,15.20
2019-04-30T09:00:42.302Z,15.30
2019-04-30T09:03:09.359Z,15.30
2019-04-30T09:05:38.631Z,15.30
2019-04-30T09:08:07.006Z,15.40
2019-04-30T09:10:33.429Z,15.50
2019-04-30T09:12:59.930Z,15.40
2019-04-30T09:15:26.230Z,15.50
2019-04-30T09:18:03.271Z,15.30
2019-04-30T09:20:20.794Z,15.30
2019-04-30T09:22:47.255Z,15.40
2019-04-30T09:25:13.702Z,15.60
2019-04-30T09:27:40.130Z,15.80
2019-04-30T09:30:10.183Z,16.00
2019-04-30T09:32:35.249Z,16.30
2019-04-30T09:35:01.704Z,16.60
2019-04-30T09:37:28.199Z,16.70
2019-04-30T09:39:54.545Z,16.60
2019-04-30T09:42:21.088Z,16.50
2019-04-30T09:44:49.288Z,16.40
2019-04-30T09:47:15.854Z,16.40
2019-04-30T09:49:42.098Z,16.50
2019-04-30T09:52:09.546Z,16.50
2019-04-30T09:54:36.363Z,16.50
2019-04-30T09:57:02.809Z,16.60
2019-04-30T09:59:29.317Z,16.60
2019-04-30T10:01:55.709Z,16.60
2019-04-30T10:04:22.670Z,16.60
2019-04-30T10:06:50.093Z,16.60
2019-04-30T10:09:16.757Z,16.90
2019-04-30T10:12:01.703Z,17.40
2019-04-30T10:14:28.221Z,17.90
2019-04-30T10:16:56.373Z,18.50
2019-04-30T10:19:22.733Z,18.90
2019-04-30T10:21:49.180Z,19.30
2019-04-30T10:24:15.865Z,19.70
2019-04-30T10:26:42.400Z,19.90
2019-04-30T10:29:08.841Z,20.10
2019-04-30T10:31:35.189Z,20.50
2019-04-30T10:34:01.826Z,20.50
2019-04-30T10:36:29.559Z,20.30
2019-04-30T10:38:56.004Z,19.90
2019-04-30T10:41:22.661Z,19.70
2019-04-30T10:43:49.360Z,19.70
2019-04-30T10:46:15.829Z,20.00
2019-04-30T10:48:43.459Z,20.20
2019-04-30T10:51:09.857Z,20.40
2019-04-30T10:53:36.102Z,20.60
2019-04-30T10:56:02.558Z,21.10
2019-04-30T10:58:29.014Z,21.30
2019-04-30T11:00:55.444Z,21.30
2019-04-30T11:03:23.059Z,21.20
2019-04-30T11:05:49.532Z,20.70
2019-04-30T11:08:16.069Z,20.40
2019-04-30T11:10:42.689Z,19.90
2019-04-30T11:13:09.129Z,19.40
2019-04-30T11:15:35.481Z,19.00
2019-04-30T11:18:02.327Z,18.60
2019-04-30T11:20:29.813Z,18.30
2019-04-30T11:22:56.554Z,18.10
2019-04-30T11:25:23.640Z,17.90
2019-04-30T11:27:50.971Z,17.80
2019-04-30T11:30:23.634Z,17.10
2019-04-30T11:32:46.653Z,16.40
2019-04-30T11:35:13.788Z,15.90
2019-04-30T11:37:40.137Z,15.60
2019-04-30T11:40:07.382Z,15.20
2019-04-30T11:42:33.933Z,14.80
2019-04-30T11:45:00.373Z,14.50
2019-04-30T11:47:28.628Z,14.40
2019-04-30T11:49:55.083Z,14.30
2019-04-30T11:52:21.626Z,14.40
2019-04-30T11:54:51.347Z,14.10
2019-04-30T11:57:16.322Z,14.00
2019-04-30T11:59:42.769Z,13.80
2019-04-30T12:02:13.874Z,13.90
2019-04-30T12:04:40.312Z,13.80
2019-04-30T12:07:11.212Z,13.80
2019-04-30T12:09:45.073Z,13.80
2019-04-30T12:12:11.329Z,13.80
2019-04-30T12:14:39.455Z,13.70
2019-04-30T12:17:05.925Z,13.70
2019-04-30T12:19:32.294Z,13.70
2019-04-30T12:21:58.550Z,13.60
2019-04-30T12:24:24.905Z,13.50
2019-04-30T12:26:51.355Z,13.30
2019-04-30T12:29:19.120Z,13.20
2019-04-30T12:31:45.450Z,13.10
2019-04-30T12:34:11.801Z,13.10
2019-04-30T12:36:38.780Z,12.90
2019-04-30T12:39:05.914Z,12.90
2019-04-30T12:41:32.326Z,12.80
2019-04-30T12:43:58.668Z,12.80
2019-04-30T12:46:25.232Z,12.80
2019-04-30T12:48:53.570Z,12.80
2019-04-30T12:51:27.556Z,12.80
2019-04-30T12:53:58.663Z,12.80
2019-04-30T12:56:29.726Z,12.70
2019-04-30T12:58:56.255Z,12.60
2019-04-30T13:01:22.805Z,12.40
2019-04-30T13:03:58.063Z,12.20
2019-04-30T13:06:17.734Z,12.20
2019-04-30T13:08:44.796Z,12.10
2019-04-30T13:11:12.959Z,12.00
2019-04-30T13:13:40.825Z,11.90
2019-04-30T13:16:08.549Z,12.00
2019-04-30T13:18:35.170Z,12.10
2019-04-30T13:21:01.630Z,12.30
2019-04-30T13:23:29.797Z,12.40
2019-04-30T13:25:56.138Z,12.40
2019-04-30T13:28:24.478Z,12.40
2019-04-30T13:30:50.816Z,12.30
2019-04-30T13:33:38.913Z,12.20
2019-04-30T13:36:05.468Z,12.10
2019-04-30T13:38:45.144Z,12.00
2019-04-30T13:41:08.749Z,11.90
2019-04-30T13:43:45.815Z,11.90
2019-04-30T13:46:12.301Z,11.90
2019-04-30T13:48:38.643Z,12.00
2019-04-30T13:51:04.997Z,12.00
2019-04-30T13:53:31.347Z,12.00
2019-04-30T13:55:58.945Z,12.10
2019-04-30T13:58:25.361Z,12.10
2019-04-30T14:00:51.710Z,12.20
2019-04-30T14:03:39.038Z,12.20
2019-04-30T14:06:06.665Z,12.20
2019-04-30T14:08:43.816Z,12.40
2019-04-30T14:11:10.433Z,12.30
2019-04-30T14:13:37.081Z,12.40
2019-04-30T14:16:03.732Z,12.40
2019-04-30T14:18:33.868Z,12.50
2019-04-30T14:21:00.801Z,12.50
2019-04-30T14:23:28.621Z,12.40
2019-04-30T14:25:56.646Z,12.40
2019-04-30T14:28:23.400Z,12.50
2019-04-30T14:30:49.742Z,12.60
2019-04-30T14:33:25.691Z,12.70
2019-04-30T14:35:44.557Z,12.80
2019-04-30T14:38:11.001Z,12.80
2019-04-30T14:40:39.953Z,12.80
2019-04-30T14:43:09.838Z,12.80
2019-04-30T14:45:54.248Z,12.90
2019-04-30T14:48:23.916Z,12.80
2019-04-30T14:50:50.925Z,12.90
2019-04-30T14:53:19.274Z,12.70
2019-04-30T14:55:50.385Z,12.70
2019-04-30T14:58:33.359Z,12.60
2019-04-30T15:01:01.713Z,12.70
2019-04-30T15:03:30.261Z,12.70
2019-04-30T15:05:58.835Z,12.80
2019-04-30T15:08:25.012Z,12.90
2019-04-30T15:10:51.464Z,12.80
2019-04-30T15:13:19.511Z,12.80
2019-04-30T15:15:45.942Z,12.90
2019-04-30T15:18:12.389Z,12.90
2019-04-30T15:20:39.747Z,13.00
2019-04-30T15:23:19.122Z,13.00
2019-04-30T15:25:42.497Z,13.10
2019-04-30T15:28:09.834Z,13.20
2019-04-30T15:30:36.199Z,13.30
2019-04-30T15:33:13.383Z,13.30
2019-04-30T15:35:39.911Z,13.30
2019-04-30T15:38:06.345Z,13.40
2019-04-30T15:40:32.706Z,13.40
2019-04-30T15:43:02.420Z,13.50
2019-04-30T15:45:29.236Z,13.40
2019-04-30T15:47:55.441Z,13.40
2019-04-30T15:50:21.901Z,13.30
2019-04-30T15:52:48.623Z,13.50
2019-04-30T15:55:14.996Z,13.50
2019-04-30T15:57:54.957Z,13.60
2019-04-30T16:00:21.604Z,13.50
2019-04-30T16:02:57.433Z,13.50
2019-04-30T16:05:25.817Z,13.40
2019-04-30T16:07:53.977Z,13.30
2019-04-30T16:10:22.335Z,13.30
2019-04-30T16:12:59.172Z,13.20
2019-04-30T16:15:25.609Z,13.10
2019-04-30T16:17:58.731Z,13.10
2019-04-30T16:20:25.037Z,13.00
2019-04-30T16:22:51.469Z,13.10
2019-04-30T16:25:19.423Z,13.10
2019-04-30T16:27:45.937Z,13.10
2019-04-30T16:30:12.901Z,13.00
2019-04-30T16:32:39.153Z,13.00
2019-04-30T16:35:05.885Z,12.90
2019-04-30T16:37:32.224Z,12.90
2019-04-30T16:39:58.660Z,12.90
2019-04-30T16:42:24.909Z,12.90
2019-04-30T16:44:51.257Z,13.00
2019-04-30T16:47:19.672Z,13.00
2019-04-30T16:49:45.853Z,12.90
2019-04-30T16:52:12.157Z,12.90
2019-04-30T16:54:39.499Z,12.80
2019-04-30T16:57:06.962Z,12.80
2019-04-30T16:59:38.916Z,12.80
2019-04-30T17:02:05.485Z,12.80
2019-04-30T17:04:36.477Z,12.70
2019-04-30T17:07:21.489Z,12.70
2019-04-30T17:10:01.386Z,12.70
2019-04-30T17:12:35.260Z,12.70
2019-04-30T17:15:13.029Z,12.70
2019-04-30T17:17:39.882Z,12.60
2019-04-30T17:20:06.431Z,12.60
2019-04-30T17:22:32.983Z,12.60
2019-04-30T17:24:59.432Z,12.50
2019-04-30T17:27:25.665Z,12.50
2019-04-30T17:29:51.917Z,12.50
2019-04-30T17:32:18.608Z,12.50
2019-04-30T17:34:44.904Z,12.60
2019-04-30T17:37:11.149Z,12.60
2019-04-30T17:39:40.847Z,12.60
2019-04-30T17:42:05.653Z,12.50
2019-04-30T17:44:31.999Z,12.50
2019-04-30T17:47:00.111Z,12.50
2019-04-30T17:49:26.412Z,12.50
2019-04-30T17:51:52.953Z,12.40
2019-04-30T17:54:19.213Z,12.30
2019-04-30T17:56:46.153Z,12.30
2019-04-30T17:59:12.685Z,12.40
2019-04-30T18:01:41.118Z,12.40
2019-04-30T18:04:08.768Z,12.30
2019-04-30T18:06:35.233Z,12.30
2019-04-30T18:09:01.676Z,12.20
2019-04-30T18:11:29.551Z,12.20
2019-04-30T18:13:56.001Z,12.10
2019-04-30T18:16:22.442Z,12.10
2019-04-30T18:18:51.188Z,12.10
2019-04-30T18:21:22.397Z,12.10
2019-04-30T18:23:59.591Z,11.90
2019-04-30T18:26:26.033Z,11.80
2019-04-30T18:28:52.381Z,11.80
2019-04-30T18:31:18.823Z,11.70
2019-04-30T18:33:45.269Z,11.70
2019-04-30T18:36:11.718Z,11.60
2019-04-30T18:38:39.156Z,11.50
2019-04-30T18:41:05.605Z,11.50
2019-04-30T18:43:32.053Z,11.40
2019-04-30T18:46:00.602Z,11.20
2019-04-30T18:48:26.841Z,11.20
2019-04-30T18:50:53.169Z,11.20
2019-04-30T18:53:21.522Z,11.20
2019-04-30T18:55:50.500Z,11.20
2019-04-30T18:58:16.177Z,11.10
2019-04-30T19:00:44.024Z,11.10
2019-04-30T19:03:10.472Z,11.00
2019-04-30T19:05:39.152Z,11.00
2019-04-30T19:08:16.525Z,11.10
2019-04-30T19:11:00.257Z,11.10
2019-04-30T19:13:27.173Z,11.00
2019-04-30T19:16:17.934Z,10.90
2019-04-30T19:18:28.241Z,10.80
2019-04-30T19:20:55.869Z,10.80
2019-04-30T19:23:22.344Z,10.80
2019-04-30T19:25:48.884Z,10.70
2019-04-30T19:28:15.309Z,10.60
2019-04-30T19:30:54.300Z,10.60
2019-04-30T19:33:10.071Z,10.60
2019-04-30T19:35:36.503Z,10.60
2019-04-30T19:38:03.053Z,10.50
2019-04-30T19:40:29.508Z,10.50
2019-04-30T19:42:55.760Z,10.50
2019-04-30T19:45:22.233Z,10.50
2019-04-30T19:47:49.045Z,10.40
2019-04-30T19:50:15.461Z,10.50
2019-04-30T19:52:41.826Z,10.40
2019-04-30T19:55:08.365Z,10.40
2019-04-30T19:57:34.694Z,10.30
2019-04-30T20:00:01.181Z,10.40
2019-04-30T20:02:29.442Z,10.30
2019-04-30T20:04:55.633Z,10.30
2019-04-30T20:07:21.976Z,10.20
2019-04-30T20:10:00.297Z,10.20
2019-04-30T20:12:18.734Z,10.10
2019-04-30T20:14:45.019Z,10.10
2019-04-30T20:17:13.142Z,10.20
2019-04-30T20:19:39.581Z,10.10
2019-04-30T20:22:05.828Z,10.00
2019-04-30T20:24:32.094Z,9.80
2019-04-30T20:27:06.806Z,9.70
2019-04-30T20:29:28.669Z,9.60
2019-04-30T20:31:54.640Z,9.50
2019-04-30T20:34:20.885Z,9.50
2019-04-30T20:36:47.350Z,9.50
2019-04-30T20:39:16.002Z,9.50
2019-04-30T20:41:42.337Z,9.30
2019-04-30T20:44:10.571Z,9.20
2019-04-30T20:46:39.172Z,9.10
2019-04-30T20:49:05.175Z,9.00
2019-04-30T20:51:31.416Z,9.00
2019-04-30T20:53:59.202Z,8.90
2019-04-30T20:56:25.565Z,8.90
2019-04-30T20:58:57.364Z,8.90
2019-04-30T21:01:20.256Z,8.80
2019-04-30T21:03:46.705Z,8.80
2019-04-30T21:06:12.853Z,8.70
2019-04-30T21:08:39.097Z,8.70
2019-04-30T21:11:05.449Z,8.30
2019-04-30T21:13:31.705Z,8.60
2019-04-30T21:15:59.503Z,8.60
2019-04-30T21:18:25.890Z,8.60
2019-04-30T21:20:52.263Z,8.50
2019-04-30T21:23:19.400Z,8.40
2019-04-30T21:25:46.061Z,8.30
2019-04-30T21:28:12.305Z,8.30
2019-04-30T21:30:38.552Z,8.20
2019-04-30T21:33:09.665Z,8.20
2019-04-30T21:35:50.778Z,8.20
2019-04-30T21:38:19.241Z,8.20
2019-04-30T21:40:45.467Z,8.20
2019-04-30T21:43:12.012Z,8.00
2019-04-30T21:45:39.821Z,8.00
2019-04-30T21:48:06.439Z,8.00
2019-04-30T21:50:32.965Z,8.10
2019-04-30T21:52:59.752Z,8.00
2019-04-30T21:55:26.237Z,7.90
2019-04-30T21:57:52.675Z,8.10
2019-04-30T22:00:29.276Z,8.00
2019-04-30T22:02:55.729Z,8.10
2019-04-30T22:05:22.169Z,8.00
2019-04-30T22:07:48.652Z,7.90
2019-04-30T22:10:16.960Z,8.20
2019-04-30T22:12:43.489Z,8.00
2019-04-30T22:15:11.849Z,7.90
2019-04-30T22:17:39.207Z,7.90
2019-04-30T22:20:07.343Z,7.80
2019-04-30T22:22:33.696Z,7.80
2019-04-30T22:24:59.942Z,7.80
2019-04-30T22:27:26.506Z,8.00
2019-04-30T22:29:52.749Z,7.70
2019-04-30T22:32:19.460Z,7.70
2019-04-30T22:34:45.989Z,7.60
2019-04-30T22:37:12.434Z,7.20
2019-04-30T22:39:40.853Z,7.50
2019-04-30T22:42:29.927Z,7.60
2019-04-30T22:44:56.645Z,7.60
2019-04-30T22:47:22.979Z,7.50
2019-04-30T22:49:49.413Z,7.50
2019-04-30T22:52:15.864Z,7.40
2019-04-30T22:54:42.019Z,7.50
2019-04-30T22:57:08.478Z,7.40
2019-04-30T22:59:34.820Z,7.50
2019-04-30T23:02:12.088Z,7.50
2019-04-30T23:04:40.546Z,7.60
2019-04-30T23:07:06.864Z,7.40
2019-04-30T23:09:33.205Z,7.30
2019-04-30T23:12:00.037Z,7.30
2019-04-30T23:14:26.267Z,7.30
2019-04-30T23:16:52.601Z,7.20
2019-04-30T23:19:18.944Z,7.20
2019-04-30T23:21:45.395Z,7.10
2019-04-30T23:24:11.830Z,7.20
2019-04-30T23:26:38.249Z,7.00
2019-04-30T23:29:04.481Z,7.20
2019-04-30T23:31:30.841Z,7.20
2019-04-30T23:33:57.189Z,7.10
2019-04-30T23:36:23.454Z,7.20
2019-04-30T23:38:49.778Z,7.20
2019-04-30T23:41:16.125Z,7.30
2019-04-30T23:43:42.464Z,7.30
2019-04-30T23:46:08.833Z,7.20
2019-04-30T23:48:35.181Z,7.10
2019-04-30T23:51:01.526Z,7.10
2019-04-30T23:53:27.874Z,7.10
2019-04-30T23:55:54.504Z,7.10
2019-04-30T23:58:20.745Z,7.30
